sensor_id;sensor_type;location;lat;lon;timestamp;P1;durP1;ratioP1;P2;durP2;ratioP2
8048;SDS011;20935;42.660;23.342;2023-11-19T00:01:09;3.00;;;2.80;;
8048;SDS011;20935;42.660;23.342;2023-11-19T00:03:57;3.17;;;2.97;;
8048;SDS011;20935;42.660;23.342;2023-11-19T00:06:44;3.30;;;3.10;;
8048;SDS011;20935;42.660;23.342;2023-11-19T00:09:31;3.60;;;3.30;;
8048;SDS011;20935;42.660;23.342;2023-11-19T00:12:18;2.90;;;2.70;;
8048;SDS011;20935;42.660;23.342;2023-11-19T00:15:05;3.20;;;3.00;;
8048;SDS011;20935;42.660;23.342;2023-11-19T00:17:56;6.20;;;3.37;;
8048;SDS011;20935;42.660;23.342;2023-11-19T00:20:44;3.30;;;3.00;;
8048;SDS011;20935;42.660;23.342;2023-11-19T00:23:31;3.10;;;2.90;;
8048;SDS011;20935;42.660;23.342;2023-11-19T00:26:19;3.13;;;2.90;;
8048;SDS011;20935;42.660;23.342;2023-11-19T00:29:06;3.03;;;2.83;;
8048;SDS011;20935;42.660;23.342;2023-11-19T00:31:52;5.27;;;3.27;;
8048;SDS011;20935;42.660;23.342;2023-11-19T00:34:39;3.60;;;3.30;;
8048;SDS011;20935;42.660;23.342;2023-11-19T00:37:28;3.00;;;2.70;;
8048;SDS011;20935;42.660;23.342;2023-11-19T00:40:14;2.93;;;2.70;;
8048;SDS011;20935;42.660;23.342;2023-11-19T00:43:03;3.27;;;3.00;;
8048;SDS011;20935;42.660;23.342;2023-11-19T00:45:50;3.17;;;2.87;;
8048;SDS011;20935;42.660;23.342;2023-11-19T00:48:37;4.67;;;2.97;;
8048;SDS011;20935;42.660;23.342;2023-11-19T00:51:27;3.20;;;2.93;;
8048;SDS011;20935;42.660;23.342;2023-11-19T00:54:17;3.83;;;3.43;;
8048;SDS011;20935;42.660;23.342;2023-11-19T00:57:04;4.00;;;2.77;;
8048;SDS011;20935;42.660;23.342;2023-11-19T00:59:51;3.37;;;3.17;;
8048;SDS011;20935;42.660;23.342;2023-11-19T01:02:38;3.17;;;2.93;;
8048;SDS011;20935;42.660;23.342;2023-11-19T01:05:27;3.43;;;3.13;;
8048;SDS011;20935;42.660;23.342;2023-11-19T01:08:14;3.60;;;3.30;;
8048;SDS011;20935;42.660;23.342;2023-11-19T01:11:03;2.83;;;2.53;;
8048;SDS011;20935;42.660;23.342;2023-11-19T01:13:50;3.03;;;2.77;;
8048;SDS011;20935;42.660;23.342;2023-11-19T01:16:37;2.90;;;2.70;;
8048;SDS011;20935;42.660;23.342;2023-11-19T01:19:24;2.90;;;2.70;;
8048;SDS011;20935;42.660;23.342;2023-11-19T01:22:11;3.43;;;2.60;;
8048;SDS011;20935;42.660;23.342;2023-11-19T01:24:57;3.23;;;2.93;;
8048;SDS011;20935;42.660;23.342;2023-11-19T01:27:46;3.10;;;2.67;;
8048;SDS011;20935;42.660;23.342;2023-11-19T01:30:32;3.27;;;2.97;;
8048;SDS011;20935;42.660;23.342;2023-11-19T01:33:19;3.37;;;3.00;;
8048;SDS011;20935;42.660;23.342;2023-11-19T01:36:07;2.93;;;2.70;;
8048;SDS011;20935;42.660;23.342;2023-11-19T01:38:54;3.40;;;3.10;;
8048;SDS011;20935;42.660;23.342;2023-11-19T01:41:41;2.60;;;2.40;;
8048;SDS011;20935;42.660;23.342;2023-11-19T01:44:29;3.00;;;2.80;;
8048;SDS011;20935;42.660;23.342;2023-11-19T01:47:17;3.33;;;3.03;;
8048;SDS011;20935;42.660;23.342;2023-11-19T01:50:06;3.03;;;2.80;;
8048;SDS011;20935;42.660;23.342;2023-11-19T01:52:53;3.13;;;2.93;;
8048;SDS011;20935;42.660;23.342;2023-11-19T01:55:40;2.87;;;2.63;;
8048;SDS011;20935;42.660;23.342;2023-11-19T01:58:27;2.70;;;2.50;;
8048;SDS011;20935;42.660;23.342;2023-11-19T02:01:16;3.67;;;3.37;;
8048;SDS011;20935;42.660;23.342;2023-11-19T02:04:03;3.40;;;3.20;;
8048;SDS011;20935;42.660;23.342;2023-11-19T02:06:50;4.17;;;3.30;;
8048;SDS011;20935;42.660;23.342;2023-11-19T02:09:39;3.07;;;2.87;;
8048;SDS011;20935;42.660;23.342;2023-11-19T02:12:28;3.13;;;2.83;;
8048;SDS011;20935;42.660;23.342;2023-11-19T02:15:19;2.67;;;2.47;;
8048;SDS011;20935;42.660;23.342;2023-11-19T02:18:21;2.33;;;2.13;;
8048;SDS011;20935;42.660;23.342;2023-11-19T02:21:08;3.10;;;2.90;;
8048;SDS011;20935;42.660;23.342;2023-11-19T02:23:56;2.90;;;2.63;;
8048;SDS011;20935;42.660;23.342;2023-11-19T02:26:44;2.80;;;2.60;;
8048;SDS011;20935;42.660;23.342;2023-11-19T02:29:35;2.97;;;2.77;;
8048;SDS011;20935;42.660;23.342;2023-11-19T02:32:23;3.17;;;2.90;;
8048;SDS011;20935;42.660;23.342;2023-11-19T02:35:11;2.20;;;2.10;;
8048;SDS011;20935;42.660;23.342;2023-11-19T02:37:58;2.30;;;2.20;;
8048;SDS011;20935;42.660;23.342;2023-11-19T02:40:45;3.13;;;2.83;;
8048;SDS011;20935;42.660;23.342;2023-11-19T02:43:31;3.20;;;3.00;;
8048;SDS011;20935;42.660;23.342;2023-11-19T02:46:20;3.00;;;2.80;;
8048;SDS011;20935;42.660;23.342;2023-11-19T02:49:07;3.47;;;2.97;;
8048;SDS011;20935;42.660;23.342;2023-11-19T02:51:53;2.70;;;2.50;;
8048;SDS011;20935;42.660;23.342;2023-11-19T02:54:40;3.47;;;3.10;;
8048;SDS011;20935;42.660;23.342;2023-11-19T02:57:30;3.47;;;3.20;;
8048;SDS011;20935;42.660;23.342;2023-11-19T03:00:17;5.57;;;2.83;;
8048;SDS011;20935;42.660;23.342;2023-11-19T03:03:10;3.27;;;2.83;;
8048;SDS011;20935;42.660;23.342;2023-11-19T03:06:05;3.47;;;2.47;;
8048;SDS011;20935;42.660;23.342;2023-11-19T03:08:52;2.90;;;2.70;;
8048;SDS011;20935;42.660;23.342;2023-11-19T03:11:39;3.53;;;3.33;;
8048;SDS011;20935;42.660;23.342;2023-11-19T03:14:26;3.30;;;3.00;;
8048;SDS011;20935;42.660;23.342;2023-11-19T03:17:12;2.80;;;2.60;;
8048;SDS011;20935;42.660;23.342;2023-11-19T03:20:01;3.20;;;2.93;;
8048;SDS011;20935;42.660;23.342;2023-11-19T03:22:47;2.57;;;2.37;;
8048;SDS011;20935;42.660;23.342;2023-11-19T03:25:36;3.13;;;2.93;;
8048;SDS011;20935;42.660;23.342;2023-11-19T03:28:23;2.87;;;2.60;;
8048;SDS011;20935;42.660;23.342;2023-11-19T03:31:10;3.30;;;3.00;;
8048;SDS011;20935;42.660;23.342;2023-11-19T03:33:57;3.70;;;3.40;;
8048;SDS011;20935;42.660;23.342;2023-11-19T03:36:45;3.27;;;2.97;;
8048;SDS011;20935;42.660;23.342;2023-11-19T03:39:32;3.27;;;3.03;;
8048;SDS011;20935;42.660;23.342;2023-11-19T03:42:19;3.37;;;3.07;;
8048;SDS011;20935;42.660;23.342;2023-11-19T03:45:06;3.37;;;3.07;;
8048;SDS011;20935;42.660;23.342;2023-11-19T03:47:54;3.03;;;2.80;;
8048;SDS011;20935;42.660;23.342;2023-11-19T03:50:41;4.27;;;3.93;;
8048;SDS011;20935;42.660;23.342;2023-11-19T03:53:29;3.23;;;2.93;;
8048;SDS011;20935;42.660;23.342;2023-11-19T03:56:17;2.87;;;2.67;;
8048;SDS011;20935;42.660;23.342;2023-11-19T03:59:03;3.70;;;3.03;;
8048;SDS011;20935;42.660;23.342;2023-11-19T04:01:50;4.93;;;2.70;;
8048;SDS011;20935;42.660;23.342;2023-11-19T04:04:39;3.63;;;3.33;;
8048;SDS011;20935;42.660;23.342;2023-11-19T04:07:25;2.70;;;2.50;;
8048;SDS011;20935;42.660;23.342;2023-11-19T04:10:14;3.43;;;3.13;;
8048;SDS011;20935;42.660;23.342;2023-11-19T04:13:02;3.60;;;3.10;;
8048;SDS011;20935;42.660;23.342;2023-11-19T04:15:49;3.53;;;3.23;;
8048;SDS011;20935;42.660;23.342;2023-11-19T04:18:36;4.00;;;2.93;;
8048;SDS011;20935;42.660;23.342;2023-11-19T04:21:23;3.87;;;3.57;;
8048;SDS011;20935;42.660;23.342;2023-11-19T04:24:10;2.97;;;2.73;;
8048;SDS011;20935;42.660;23.342;2023-11-19T04:26:59;3.13;;;2.83;;
8048;SDS011;20935;42.660;23.342;2023-11-19T04:29:46;3.07;;;2.80;;
8048;SDS011;20935;42.660;23.342;2023-11-19T04:32:34;2.93;;;2.73;;
8048;SDS011;20935;42.660;23.342;2023-11-19T04:35:21;2.97;;;2.77;;
8048;SDS011;20935;42.660;23.342;2023-11-19T04:38:07;3.03;;;2.80;;
8048;SDS011;20935;42.660;23.342;2023-11-19T04:40:54;2.83;;;2.60;;
8048;SDS011;20935;42.660;23.342;2023-11-19T04:43:44;3.13;;;2.93;;
8048;SDS011;20935;42.660;23.342;2023-11-19T04:46:30;2.90;;;2.70;;
8048;SDS011;20935;42.660;23.342;2023-11-19T04:49:17;3.83;;;3.53;;
8048;SDS011;20935;42.660;23.342;2023-11-19T04:52:04;3.63;;;3.33;;
8048;SDS011;20935;42.660;23.342;2023-11-19T04:54:51;3.53;;;3.23;;
8048;SDS011;20935;42.660;23.342;2023-11-19T04:57:38;3.07;;;2.77;;
8048;SDS011;20935;42.660;23.342;2023-11-19T05:00:26;2.57;;;2.37;;
8048;SDS011;20935;42.660;23.342;2023-11-19T05:03:13;3.13;;;2.83;;
8048;SDS011;20935;42.660;23.342;2023-11-19T05:06:00;3.07;;;2.77;;
8048;SDS011;20935;42.660;23.342;2023-11-19T05:08:46;2.83;;;2.63;;
8048;SDS011;20935;42.660;23.342;2023-11-19T05:11:33;3.47;;;3.17;;
8048;SDS011;20935;42.660;23.342;2023-11-19T05:14:20;3.03;;;2.83;;
8048;SDS011;20935;42.660;23.342;2023-11-19T05:17:11;3.60;;;3.30;;
8048;SDS011;20935;42.660;23.342;2023-11-19T05:19:58;4.00;;;3.60;;
8048;SDS011;20935;42.660;23.342;2023-11-19T05:22:45;3.00;;;2.80;;
8048;SDS011;20935;42.660;23.342;2023-11-19T05:25:32;3.37;;;3.00;;
8048;SDS011;20935;42.660;23.342;2023-11-19T05:28:19;3.50;;;3.30;;
8048;SDS011;20935;42.660;23.342;2023-11-19T05:31:05;3.10;;;2.80;;
8048;SDS011;20935;42.660;23.342;2023-11-19T05:33:54;3.00;;;2.80;;
8048;SDS011;20935;42.660;23.342;2023-11-19T05:36:40;3.10;;;2.90;;
8048;SDS011;20935;42.660;23.342;2023-11-19T05:39:27;2.70;;;2.47;;
8048;SDS011;20935;42.660;23.342;2023-11-19T05:42:14;3.30;;;3.00;;
8048;SDS011;20935;42.660;23.342;2023-11-19T05:45:01;3.20;;;3.00;;
8048;SDS011;20935;42.660;23.342;2023-11-19T05:47:48;3.03;;;2.83;;
8048;SDS011;20935;42.660;23.342;2023-11-19T05:50:36;3.47;;;3.17;;
8048;SDS011;20935;42.660;23.342;2023-11-19T05:53:23;4.13;;;3.43;;
8048;SDS011;20935;42.660;23.342;2023-11-19T05:56:10;3.17;;;2.90;;
8048;SDS011;20935;42.660;23.342;2023-11-19T05:58:57;3.53;;;3.00;;
8048;SDS011;20935;42.660;23.342;2023-11-19T06:01:43;2.60;;;2.40;;
8048;SDS011;20935;42.660;23.342;2023-11-19T06:04:30;3.90;;;3.00;;
8048;SDS011;20935;42.660;23.342;2023-11-19T06:07:18;3.63;;;3.33;;
8048;SDS011;20935;42.660;23.342;2023-11-19T06:10:05;3.77;;;3.33;;
8048;SDS011;20935;42.660;23.342;2023-11-19T06:12:55;3.20;;;2.73;;
8048;SDS011;20935;42.660;23.342;2023-11-19T06:15:42;3.27;;;2.97;;
8048;SDS011;20935;42.660;23.342;2023-11-19T06:18:29;3.20;;;2.90;;
8048;SDS011;20935;42.660;23.342;2023-11-19T06:21:16;3.70;;;3.40;;
8048;SDS011;20935;42.660;23.342;2023-11-19T06:24:05;3.87;;;3.57;;
8048;SDS011;20935;42.660;23.342;2023-11-19T06:26:52;3.53;;;3.23;;
8048;SDS011;20935;42.660;23.342;2023-11-19T06:29:39;4.00;;;3.60;;
8048;SDS011;20935;42.660;23.342;2023-11-19T06:32:26;2.77;;;2.57;;
8048;SDS011;20935;42.660;23.342;2023-11-19T06:35:13;2.90;;;2.70;;
8048;SDS011;20935;42.660;23.342;2023-11-19T06:38:00;3.23;;;2.93;;
8048;SDS011;20935;42.660;23.342;2023-11-19T06:40:48;3.73;;;2.90;;
8048;SDS011;20935;42.660;23.342;2023-11-19T06:43:36;3.40;;;3.10;;
8048;SDS011;20935;42.660;23.342;2023-11-19T06:46:23;3.90;;;3.43;;
8048;SDS011;20935;42.660;23.342;2023-11-19T06:49:09;3.50;;;2.67;;
8048;SDS011;20935;42.660;23.342;2023-11-19T06:51:56;2.63;;;2.43;;
8048;SDS011;20935;42.660;23.342;2023-11-19T06:54:43;3.07;;;2.87;;
8048;SDS011;20935;42.660;23.342;2023-11-19T06:57:32;3.53;;;3.23;;
8048;SDS011;20935;42.660;23.342;2023-11-19T07:00:19;4.10;;;3.80;;
8048;SDS011;20935;42.660;23.342;2023-11-19T07:03:06;2.83;;;2.63;;
8048;SDS011;20935;42.660;23.342;2023-11-19T07:05:54;4.80;;;3.40;;
8048;SDS011;20935;42.660;23.342;2023-11-19T07:08:41;3.67;;;3.37;;
8048;SDS011;20935;42.660;23.342;2023-11-19T07:11:30;4.07;;;3.77;;
8048;SDS011;20935;42.660;23.342;2023-11-19T07:14:18;3.67;;;3.33;;
8048;SDS011;20935;42.660;23.342;2023-11-19T07:17:05;4.23;;;3.63;;
8048;SDS011;20935;42.660;23.342;2023-11-19T07:19:52;4.17;;;3.77;;
8048;SDS011;20935;42.660;23.342;2023-11-19T07:22:39;3.70;;;3.40;;
8048;SDS011;20935;42.660;23.342;2023-11-19T07:25:26;4.43;;;4.03;;
8048;SDS011;20935;42.660;23.342;2023-11-19T07:28:13;4.10;;;3.70;;
8048;SDS011;20935;42.660;23.342;2023-11-19T07:31:01;4.27;;;3.87;;
8048;SDS011;20935;42.660;23.342;2023-11-19T07:33:51;3.57;;;3.27;;
8048;SDS011;20935;42.660;23.342;2023-11-19T07:36:38;3.40;;;3.10;;
8048;SDS011;20935;42.660;23.342;2023-11-19T07:39:25;3.17;;;2.97;;
8048;SDS011;20935;42.660;23.342;2023-11-19T07:42:11;4.27;;;3.87;;
8048;SDS011;20935;42.660;23.342;2023-11-19T07:44:58;4.63;;;3.00;;
8048;SDS011;20935;42.660;23.342;2023-11-19T07:47:46;3.87;;;3.43;;
8048;SDS011;20935;42.660;23.342;2023-11-19T07:50:36;3.37;;;3.07;;
8048;SDS011;20935;42.660;23.342;2023-11-19T07:53:23;3.47;;;3.17;;
8048;SDS011;20935;42.660;23.342;2023-11-19T07:56:10;3.93;;;3.63;;
8048;SDS011;20935;42.660;23.342;2023-11-19T07:58:57;5.73;;;4.00;;
8048;SDS011;20935;42.660;23.342;2023-11-19T08:01:43;4.50;;;4.07;;
8048;SDS011;20935;42.660;23.342;2023-11-19T08:04:32;4.37;;;3.97;;
8048;SDS011;20935;42.660;23.342;2023-11-19T08:07:19;3.90;;;3.57;;
8048;SDS011;20935;42.660;23.342;2023-11-19T08:10:06;4.60;;;4.00;;
8048;SDS011;20935;42.660;23.342;2023-11-19T08:12:55;3.47;;;3.17;;
8048;SDS011;20935;42.660;23.342;2023-11-19T08:15:42;3.97;;;3.67;;
8048;SDS011;20935;42.660;23.342;2023-11-19T08:18:28;3.07;;;2.87;;
8048;SDS011;20935;42.660;23.342;2023-11-19T08:21:17;4.47;;;3.47;;
8048;SDS011;20935;42.660;23.342;2023-11-19T08:24:04;4.00;;;3.60;;
8048;SDS011;20935;42.660;23.342;2023-11-19T08:26:51;3.23;;;2.97;;
8048;SDS011;20935;42.660;23.342;2023-11-19T08:29:38;4.27;;;3.87;;
8048;SDS011;20935;42.660;23.342;2023-11-19T08:32:25;4.37;;;3.67;;
8048;SDS011;20935;42.660;23.342;2023-11-19T08:35:12;4.50;;;4.10;;
8048;SDS011;20935;42.660;23.342;2023-11-19T08:38:00;3.97;;;3.20;;
8048;SDS011;20935;42.660;23.342;2023-11-19T08:40:47;4.20;;;3.80;;
8048;SDS011;20935;42.660;23.342;2023-11-19T08:43:34;3.80;;;3.50;;
8048;SDS011;20935;42.660;23.342;2023-11-19T08:46:21;3.57;;;3.27;;
8048;SDS011;20935;42.660;23.342;2023-11-19T08:49:07;3.03;;;2.83;;
8048;SDS011;20935;42.660;23.342;2023-11-19T08:51:54;4.70;;;4.30;;
8048;SDS011;20935;42.660;23.342;2023-11-19T08:54:43;3.93;;;3.63;;
8048;SDS011;20935;42.660;23.342;2023-11-19T08:57:30;3.97;;;3.67;;
8048;SDS011;20935;42.660;23.342;2023-11-19T09:00:18;3.77;;;3.20;;
8048;SDS011;20935;42.660;23.342;2023-11-19T09:03:06;4.50;;;4.10;;
8048;SDS011;20935;42.660;23.342;2023-11-19T09:05:54;3.40;;;3.10;;
8048;SDS011;20935;42.660;23.342;2023-11-19T09:08:41;4.03;;;3.63;;
8048;SDS011;20935;42.660;23.342;2023-11-19T09:11:30;4.43;;;3.60;;
8048;SDS011;20935;42.660;23.342;2023-11-19T09:14:17;3.83;;;3.53;;
8048;SDS011;20935;42.660;23.342;2023-11-19T09:17:09;3.60;;;3.30;;
8048;SDS011;20935;42.660;23.342;2023-11-19T09:19:56;3.83;;;3.27;;
8048;SDS011;20935;42.660;23.342;2023-11-19T09:22:43;4.63;;;3.57;;
8048;SDS011;20935;42.660;23.342;2023-11-19T09:25:30;3.40;;;3.10;;
8048;SDS011;20935;42.660;23.342;2023-11-19T09:28:18;3.40;;;3.10;;
8048;SDS011;20935;42.660;23.342;2023-11-19T09:31:12;3.60;;;3.30;;
8048;SDS011;20935;42.660;23.342;2023-11-19T09:33:59;7.37;;;4.43;;
8048;SDS011;20935;42.660;23.342;2023-11-19T09:36:46;4.30;;;3.67;;
8048;SDS011;20935;42.660;23.342;2023-11-19T09:39:33;3.40;;;3.13;;
8048;SDS011;20935;42.660;23.342;2023-11-19T09:42:19;4.60;;;4.10;;
8048;SDS011;20935;42.660;23.342;2023-11-19T09:45:08;4.83;;;3.57;;
8048;SDS011;20935;42.660;23.342;2023-11-19T09:47:59;4.40;;;4.00;;
8048;SDS011;20935;42.660;23.342;2023-11-19T09:50:47;4.30;;;3.90;;
8048;SDS011;20935;42.660;23.342;2023-11-19T09:53:35;4.83;;;4.43;;
8048;SDS011;20935;42.660;23.342;2023-11-19T09:56:22;3.60;;;3.23;;
8048;SDS011;20935;42.660;23.342;2023-11-19T09:59:09;5.37;;;3.70;;
8048;SDS011;20935;42.660;23.342;2023-11-19T10:01:58;3.70;;;3.40;;
8048;SDS011;20935;42.660;23.342;2023-11-19T10:04:45;3.53;;;3.17;;
8048;SDS011;20935;42.660;23.342;2023-11-19T10:07:33;3.57;;;3.27;;
8048;SDS011;20935;42.660;23.342;2023-11-19T10:10:20;2.80;;;2.60;;
8048;SDS011;20935;42.660;23.342;2023-11-19T10:13:08;2.80;;;2.60;;
8048;SDS011;20935;42.660;23.342;2023-11-19T10:15:55;3.53;;;3.23;;
8048;SDS011;20935;42.660;23.342;2023-11-19T10:18:44;4.30;;;3.90;;
8048;SDS011;20935;42.660;23.342;2023-11-19T10:21:32;3.57;;;3.27;;
8048;SDS011;20935;42.660;23.342;2023-11-19T10:24:25;3.67;;;3.20;;
8048;SDS011;20935;42.660;23.342;2023-11-19T10:27:17;2.63;;;2.40;;
8048;SDS011;20935;42.660;23.342;2023-11-19T10:30:04;3.17;;;2.87;;
8048;SDS011;20935;42.660;23.342;2023-11-19T10:33:04;2.97;;;2.70;;
8048;SDS011;20935;42.660;23.342;2023-11-19T10:35:54;2.87;;;2.67;;
8048;SDS011;20935;42.660;23.342;2023-11-19T10:38:51;3.13;;;2.83;;
8048;SDS011;20935;42.660;23.342;2023-11-19T10:41:38;4.53;;;3.10;;
8048;SDS011;20935;42.660;23.342;2023-11-19T10:44:31;3.50;;;2.60;;
8048;SDS011;20935;42.660;23.342;2023-11-19T10:47:19;2.77;;;2.57;;
8048;SDS011;20935;42.660;23.342;2023-11-19T10:50:06;2.83;;;2.30;;
8048;SDS011;20935;42.660;23.342;2023-11-19T10:52:55;2.53;;;2.33;;
8048;SDS011;20935;42.660;23.342;2023-11-19T10:55:45;2.87;;;2.60;;
8048;SDS011;20935;42.660;23.342;2023-11-19T10:58:33;3.20;;;2.90;;
8048;SDS011;20935;42.660;23.342;2023-11-19T11:01:23;3.60;;;3.30;;
8048;SDS011;20935;42.660;23.342;2023-11-19T11:04:10;3.93;;;3.50;;
8048;SDS011;20935;42.660;23.342;2023-11-19T11:07:00;2.93;;;2.73;;
8048;SDS011;20935;42.660;23.342;2023-11-19T11:09:49;5.07;;;3.20;;
8048;SDS011;20935;42.660;23.342;2023-11-19T11:12:36;3.63;;;2.90;;
8048;SDS011;20935;42.660;23.342;2023-11-19T11:15:23;3.10;;;2.80;;
8048;SDS011;20935;42.660;23.342;2023-11-19T11:18:11;3.23;;;2.93;;
8048;SDS011;20935;42.660;23.342;2023-11-19T11:20:59;2.83;;;2.53;;
8048;SDS011;20935;42.660;23.342;2023-11-19T11:23:52;2.83;;;2.60;;
8048;SDS011;20935;42.660;23.342;2023-11-19T11:26:57;3.30;;;2.97;;
8048;SDS011;20935;42.660;23.342;2023-11-19T11:29:48;3.00;;;2.80;;
8048;SDS011;20935;42.660;23.342;2023-11-19T11:32:41;2.90;;;2.70;;
8048;SDS011;20935;42.660;23.342;2023-11-19T11:35:31;3.93;;;3.13;;
8048;SDS011;20935;42.660;23.342;2023-11-19T11:38:21;2.80;;;2.60;;
8048;SDS011;20935;42.660;23.342;2023-11-19T11:41:18;4.63;;;3.43;;
8048;SDS011;20935;42.660;23.342;2023-11-19T11:44:09;3.07;;;2.50;;
8048;SDS011;20935;42.660;23.342;2023-11-19T11:46:56;3.10;;;2.90;;
8048;SDS011;20935;42.660;23.342;2023-11-19T11:49:41;3.07;;;2.87;;
8048;SDS011;20935;42.660;23.342;2023-11-19T11:52:27;3.53;;;3.00;;
8048;SDS011;20935;42.660;23.342;2023-11-19T11:55:14;3.90;;;3.10;;
8048;SDS011;20935;42.660;23.342;2023-11-19T11:57:59;5.40;;;3.00;;
8048;SDS011;20935;42.660;23.342;2023-11-19T12:00:46;4.07;;;3.20;;
8048;SDS011;20935;42.660;23.342;2023-11-19T12:03:32;4.17;;;3.53;;
8048;SDS011;20935;42.660;23.342;2023-11-19T12:06:20;2.97;;;2.77;;
8048;SDS011;20935;42.660;23.342;2023-11-19T12:09:07;3.53;;;3.23;;
8048;SDS011;20935;42.660;23.342;2023-11-19T12:12:06;3.60;;;3.30;;
8048;SDS011;20935;42.660;23.342;2023-11-19T12:14:59;3.43;;;3.13;;
8048;SDS011;20935;42.660;23.342;2023-11-19T12:17:48;4.40;;;4.00;;
8048;SDS011;20935;42.660;23.342;2023-11-19T12:20:38;3.53;;;3.23;;
8048;SDS011;20935;42.660;23.342;2023-11-19T12:23:25;2.93;;;2.73;;
8048;SDS011;20935;42.660;23.342;2023-11-19T12:26:21;3.40;;;3.10;;
8048;SDS011;20935;42.660;23.342;2023-11-19T12:29:17;4.30;;;3.90;;
8048;SDS011;20935;42.660;23.342;2023-11-19T12:32:04;3.23;;;2.93;;
8048;SDS011;20935;42.660;23.342;2023-11-19T12:34:52;4.43;;;3.00;;
8048;SDS011;20935;42.660;23.342;2023-11-19T12:37:41;3.43;;;2.50;;
8048;SDS011;20935;42.660;23.342;2023-11-19T12:40:28;5.57;;;3.63;;
8048;SDS011;20935;42.660;23.342;2023-11-19T12:43:21;4.07;;;3.77;;
8048;SDS011;20935;42.660;23.342;2023-11-19T12:46:16;3.63;;;3.33;;
8048;SDS011;20935;42.660;23.342;2023-11-19T12:49:03;3.83;;;3.50;;
8048;SDS011;20935;42.660;23.342;2023-11-19T12:51:52;3.70;;;3.40;;
8048;SDS011;20935;42.660;23.342;2023-11-19T12:54:39;3.67;;;3.30;;
8048;SDS011;20935;42.660;23.342;2023-11-19T12:57:36;4.10;;;3.70;;
8048;SDS011;20935;42.660;23.342;2023-11-19T13:00:23;3.50;;;3.20;;
8048;SDS011;20935;42.660;23.342;2023-11-19T13:03:10;4.50;;;4.10;;
8048;SDS011;20935;42.660;23.342;2023-11-19T13:06:01;3.53;;;3.23;;
8048;SDS011;20935;42.660;23.342;2023-11-19T13:08:53;3.73;;;3.43;;
8048;SDS011;20935;42.660;23.342;2023-11-19T13:11:41;5.90;;;3.73;;
8048;SDS011;20935;42.660;23.342;2023-11-19T13:14:35;3.57;;;3.27;;
8048;SDS011;20935;42.660;23.342;2023-11-19T13:17:22;4.13;;;3.70;;
8048;SDS011;20935;42.660;23.342;2023-11-19T13:20:09;4.00;;;3.60;;
8048;SDS011;20935;42.660;23.342;2023-11-19T13:23:00;5.57;;;4.37;;
8048;SDS011;20935;42.660;23.342;2023-11-19T13:25:48;4.83;;;3.50;;
8048;SDS011;20935;42.660;23.342;2023-11-19T13:28:35;3.80;;;3.50;;
8048;SDS011;20935;42.660;23.342;2023-11-19T13:31:22;3.93;;;3.50;;
8048;SDS011;20935;42.660;23.342;2023-11-19T13:34:09;4.40;;;3.60;;
8048;SDS011;20935;42.660;23.342;2023-11-19T13:36:56;4.00;;;3.13;;
8048;SDS011;20935;42.660;23.342;2023-11-19T13:39:43;5.23;;;4.43;;
8048;SDS011;20935;42.660;23.342;2023-11-19T13:42:31;4.93;;;4.33;;
8048;SDS011;20935;42.660;23.342;2023-11-19T13:45:18;4.23;;;3.83;;
8048;SDS011;20935;42.660;23.342;2023-11-19T13:48:06;4.73;;;3.73;;
8048;SDS011;20935;42.660;23.342;2023-11-19T13:50:53;4.47;;;3.90;;
8048;SDS011;20935;42.660;23.342;2023-11-19T13:53:40;3.13;;;2.93;;
8048;SDS011;20935;42.660;23.342;2023-11-19T13:56:27;3.70;;;3.40;;
8048;SDS011;20935;42.660;23.342;2023-11-19T13:59:15;4.17;;;3.80;;
8048;SDS011;20935;42.660;23.342;2023-11-19T14:02:02;4.63;;;4.10;;
8048;SDS011;20935;42.660;23.342;2023-11-19T14:04:49;7.80;;;4.20;;
8048;SDS011;20935;42.660;23.342;2023-11-19T14:07:35;4.40;;;3.60;;
8048;SDS011;20935;42.660;23.342;2023-11-19T14:10:22;4.73;;;3.70;;
8048;SDS011;20935;42.660;23.342;2023-11-19T14:13:09;4.17;;;3.20;;
8048;SDS011;20935;42.660;23.342;2023-11-19T14:15:58;3.43;;;3.03;;
8048;SDS011;20935;42.660;23.342;2023-11-19T14:18:45;3.20;;;3.00;;
8048;SDS011;20935;42.660;23.342;2023-11-19T14:21:34;3.80;;;3.50;;
8048;SDS011;20935;42.660;23.342;2023-11-19T14:24:21;3.97;;;3.63;;
8048;SDS011;20935;42.660;23.342;2023-11-19T14:27:09;3.23;;;2.93;;
8048;SDS011;20935;42.660;23.342;2023-11-19T14:29:57;4.20;;;3.80;;
8048;SDS011;20935;42.660;23.342;2023-11-19T14:32:46;4.57;;;3.97;;
8048;SDS011;20935;42.660;23.342;2023-11-19T14:35:34;4.20;;;3.60;;
8048;SDS011;20935;42.660;23.342;2023-11-19T14:38:20;4.10;;;3.70;;
8048;SDS011;20935;42.660;23.342;2023-11-19T14:41:07;4.67;;;4.00;;
8048;SDS011;20935;42.660;23.342;2023-11-19T14:43:54;4.57;;;3.70;;
8048;SDS011;20935;42.660;23.342;2023-11-19T14:46:41;4.17;;;3.80;;
8048;SDS011;20935;42.660;23.342;2023-11-19T14:49:29;4.83;;;4.10;;
8048;SDS011;20935;42.660;23.342;2023-11-19T14:52:16;4.20;;;3.80;;
8048;SDS011;20935;42.660;23.342;2023-11-19T14:55:03;3.83;;;3.33;;
8048;SDS011;20935;42.660;23.342;2023-11-19T14:57:51;4.67;;;4.13;;
8048;SDS011;20935;42.660;23.342;2023-11-19T15:00:38;5.13;;;4.47;;
8048;SDS011;20935;42.660;23.342;2023-11-19T15:03:25;5.63;;;4.43;;
8048;SDS011;20935;42.660;23.342;2023-11-19T15:06:13;6.03;;;4.90;;
8048;SDS011;20935;42.660;23.342;2023-11-19T15:09:00;5.23;;;4.60;;
8048;SDS011;20935;42.660;23.342;2023-11-19T15:11:47;6.73;;;4.80;;
8048;SDS011;20935;42.660;23.342;2023-11-19T15:14:34;5.53;;;4.40;;
8048;SDS011;20935;42.660;23.342;2023-11-19T15:17:21;6.50;;;4.90;;
8048;SDS011;20935;42.660;23.342;2023-11-19T15:20:08;6.10;;;5.43;;
8048;SDS011;20935;42.660;23.342;2023-11-19T15:23:00;5.60;;;5.10;;
8048;SDS011;20935;42.660;23.342;2023-11-19T15:25:47;5.47;;;4.83;;
8048;SDS011;20935;42.660;23.342;2023-11-19T15:28:34;5.90;;;4.50;;
8048;SDS011;20935;42.660;23.342;2023-11-19T15:31:21;6.10;;;5.50;;
8048;SDS011;20935;42.660;23.342;2023-11-19T15:34:08;6.53;;;5.53;;
8048;SDS011;20935;42.660;23.342;2023-11-19T15:36:55;7.23;;;6.10;;
8048;SDS011;20935;42.660;23.342;2023-11-19T15:39:44;7.90;;;5.53;;
8048;SDS011;20935;42.660;23.342;2023-11-19T15:42:32;7.53;;;5.80;;
8048;SDS011;20935;42.660;23.342;2023-11-19T15:45:19;7.93;;;6.50;;
8048;SDS011;20935;42.660;23.342;2023-11-19T15:48:06;7.93;;;5.83;;
8048;SDS011;20935;42.660;23.342;2023-11-19T15:50:52;5.57;;;4.90;;
8048;SDS011;20935;42.660;23.342;2023-11-19T15:53:39;9.23;;;6.07;;
8048;SDS011;20935;42.660;23.342;2023-11-19T15:56:28;11.87;;;6.83;;
8048;SDS011;20935;42.660;23.342;2023-11-19T15:59:16;8.20;;;7.07;;
8048;SDS011;20935;42.660;23.342;2023-11-19T16:02:03;12.63;;;6.73;;
8048;SDS011;20935;42.660;23.342;2023-11-19T16:04:50;10.23;;;7.33;;
8048;SDS011;20935;42.660;23.342;2023-11-19T16:07:37;10.27;;;7.43;;
8048;SDS011;20935;42.660;23.342;2023-11-19T16:10:25;8.10;;;6.47;;
8048;SDS011;20935;42.660;23.342;2023-11-19T16:13:13;10.83;;;7.63;;
8048;SDS011;20935;42.660;23.342;2023-11-19T16:16:00;9.83;;;6.60;;
8048;SDS011;20935;42.660;23.342;2023-11-19T16:18:47;7.90;;;6.50;;
8048;SDS011;20935;42.660;23.342;2023-11-19T16:21:34;8.13;;;6.07;;
8048;SDS011;20935;42.660;23.342;2023-11-19T16:24:21;5.80;;;4.53;;
8048;SDS011;20935;42.660;23.342;2023-11-19T16:27:08;7.27;;;5.20;;
8048;SDS011;20935;42.660;23.342;2023-11-19T16:29:56;6.20;;;5.60;;
8048;SDS011;20935;42.660;23.342;2023-11-19T16:32:47;5.20;;;4.00;;
8048;SDS011;20935;42.660;23.342;2023-11-19T16:35:34;5.10;;;4.50;;
8048;SDS011;20935;42.660;23.342;2023-11-19T16:38:22;5.33;;;4.37;;
8048;SDS011;20935;42.660;23.342;2023-11-19T16:41:09;5.40;;;4.20;;
8048;SDS011;20935;42.660;23.342;2023-11-19T16:43:57;4.87;;;4.23;;
8048;SDS011;20935;42.660;23.342;2023-11-19T16:46:49;6.07;;;4.47;;
8048;SDS011;20935;42.660;23.342;2023-11-19T16:49:36;10.83;;;5.30;;
8048;SDS011;20935;42.660;23.342;2023-11-19T16:52:23;7.30;;;5.27;;